Time;durP1;ratioP1;P1;durP2;ratioP2;P2;SDS_P1;SDS_P2;PMS_P1;PMS_P2;Temp;Humidity;BMP_temperature;BMP_pressure;BME280_temperature;BME280_humidity;BME280_pressure;Samples;Min_cycle;Max_cycle;Signal;HPM_P1;HPM_P2
2022/09/09 00:00:22;;;;;;;3.57;1.70;;;;;;;;;;5073326;28;20448;-76
2022/09/09 00:02:55;;;;;;;3.53;1.73;;;;;;;;;;5072377;28;20444;-77
2022/09/09 00:05:28;;;;;;;3.20;2.10;;;;;;;;;;5071463;28;20460;-76
2022/09/09 00:07:57;;;;;;;3.50;1.43;;;;;;;;;;5071146;28;20980;-76
2022/09/09 00:10:29;;;;;;;3.07;1.60;;;;;;;;;;5070833;28;20445;-76
2022/09/09 00:13:00;;;;;;;1.83;1.70;;;;;;;;;;5051394;28;20643;-76
2022/09/09 00:15:30;;;;;;;2.00;1.60;;;;;;;;;;5052029;28;21012;-76
2022/09/09 00:18:00;;;;;;;1.77;1.60;;;;;;;;;;5052063;28;20466;-77
2022/09/09 00:20:31;;;;;;;2.30;2.10;;;;;;;;;;5052304;28;20975;-76
2022/09/09 00:23:00;;;;;;;3.20;1.57;;;;;;;;;;5062357;28;20433;-75
2022/09/09 00:25:30;;;;;;;3.33;1.60;;;;;;;;;;5061535;28;20449;-76
2022/09/09 00:27:57;;;;;;;2.70;1.50;;;;;;;;;;5064775;28;20461;-75
2022/09/09 00:30:25;;;;;;;2.50;1.50;;;;;;;;;;5058910;28;20445;-76
2022/09/09 00:32:58;;;;;;;2.27;1.60;;;;;;;;;;5056604;28;20444;-77
2022/09/09 00:35:26;;;;;;;1.33;1.23;;;;;;;;;;5052604;28;20444;-76
2022/09/09 00:37:55;;;;;;;1.90;1.73;;;;;;;;;;5051223;28;20472;-77
2022/09/09 00:40:26;;;;;;;2.80;1.40;;;;;;;;;;5051333;28;20446;-76
2022/09/09 00:42:58;;;;;;;6.30;1.60;;;;;;;;;;5051089;28;20450;-76
2022/09/09 00:45:36;;;;;;;1.67;1.40;;;;;;;;;;5051697;28;20440;-76
2022/09/09 00:48:07;;;;;;;1.47;1.33;;;;;;;;;;5051288;28;20473;-76
2022/09/09 00:50:45;;;;;;;1.83;1.73;;;;;;;;;;5051671;28;20430;-78
2022/09/09 00:53:20;;;;;;;1.73;1.60;;;;;;;;;;5051266;28;20781;-76
2022/09/09 00:55:49;;;;;;;1.27;1.20;;;;;;;;;;5051317;28;20436;-76
2022/09/09 00:58:17;;;;;;;1.47;1.37;;;;;;;;;;5050587;28;20540;-77
2022/09/09 01:00:45;;;;;;;1.40;1.30;;;;;;;;;;5051104;28;20426;-76
2022/09/09 01:03:30;;;;;;;2.53;1.13;;;;;;;;;;5051051;28;20558;-76
2022/09/09 01:06:12;;;;;;;2.80;1.70;;;;;;;;;;5050936;28;20465;-77
2022/09/09 01:08:57;;;;;;;2.00;1.10;;;;;;;;;;5050629;28;20508;-76
2022/09/09 01:11:26;;;;;;;2.40;1.43;;;;;;;;;;5072907;28;20440;-77
2022/09/09 01:13:58;;;;;;;3.07;1.57;;;;;;;;;;5071054;28;20445;-77
2022/09/09 01:16:26;;;;;;;2.90;1.27;;;;;;;;;;5076623;28;20441;-76
2022/09/09 01:18:55;;;;;;;1.43;1.27;;;;;;;;;;5093137;28;20444;-76
2022/09/09 01:21:27;;;;;;;1.83;1.30;;;;;;;;;;5093883;28;20425;-76
2022/09/09 01:24:15;;;;;;;4.50;1.90;;;;;;;;;;5095477;28;20435;-76
2022/09/09 01:26:45;;;;;;;4.30;1.40;;;;;;;;;;5091626;28;20429;-76
2022/09/09 01:29:14;;;;;;;1.67;1.57;;;;;;;;;;5074311;28;20530;-76
2022/09/09 01:31:42;;;;;;;2.33;1.30;;;;;;;;;;5090103;28;20440;-75
2022/09/09 01:34:13;;;;;;;2.60;1.57;;;;;;;;;;5071180;28;20449;-75
2022/09/09 01:36:42;;;;;;;3.80;1.63;;;;;;;;;;5070830;28;20445;-77
2022/09/09 01:39:09;;;;;;;2.73;1.63;;;;;;;;;;5070705;28;20441;-75
2022/09/09 01:41:36;;;;;;;2.00;1.10;;;;;;;;;;5074032;28;20440;-75
2022/09/09 01:44:05;;;;;;;5.00;2.03;;;;;;;;;;5075746;28;20444;-76
2022/09/09 01:46:32;;;;;;;1.43;1.07;;;;;;;;;;5076212;28;20441;-77
2022/09/09 01:49:00;;;;;;;1.93;1.50;;;;;;;;;;5074563;28;20476;-76
2022/09/09 01:51:27;;;;;;;2.87;1.53;;;;;;;;;;5071947;28;20955;-76
2022/09/09 01:53:55;;;;;;;2.40;1.30;;;;;;;;;;5070068;28;20452;-76
2022/09/09 01:56:32;;;;;;;1.63;1.10;;;;;;;;;;5071390;28;20455;-76
2022/09/09 01:59:05;;;;;;;2.60;1.40;;;;;;;;;;5073502;28;20456;-76
2022/09/09 02:01:38;;;;;;;2.23;1.77;;;;;;;;;;5070741;28;20935;-75
2022/09/09 02:04:10;;;;;;;4.20;1.83;;;;;;;;;;5070444;28;20480;-76
2022/09/09 02:06:38;;;;;;;1.83;1.30;;;;;;;;;;5070694;28;20798;-76
2022/09/09 02:09:07;;;;;;;1.60;1.40;;;;;;;;;;5070228;28;20492;-76
2022/09/09 02:11:34;;;;;;;1.80;1.43;;;;;;;;;;5070042;28;20966;-76
2022/09/09 02:14:02;;;;;;;2.47;1.80;;;;;;;;;;5069843;28;20451;-76
2022/09/09 02:16:32;;;;;;;2.50;1.40;;;;;;;;;;5070586;28;20444;-76
2022/09/09 02:19:02;;;;;;;3.30;1.60;;;;;;;;;;5070455;28;20448;-77
2022/09/09 02:21:30;;;;;;;5.40;1.57;;;;;;;;;;5070256;28;20456;-76
2022/09/09 02:23:59;;;;;;;3.03;1.40;;;;;;;;;;5069904;28;21001;-77
2022/09/09 02:26:27;;;;;;;2.37;1.50;;;;;;;;;;5070369;28;20643;-78
2022/09/09 02:28:55;;;;;;;1.23;1.10;;;;;;;;;;5071492;28;20491;-76
2022/09/09 02:31:24;;;;;;;3.30;1.70;;;;;;;;;;5074348;28;20456;-76
2022/09/09 02:33:53;;;;;;;1.93;1.37;;;;;;;;;;5073753;28;20440;-77
2022/09/09 02:36:23;;;;;;;1.20;1.10;;;;;;;;;;5073963;28;20445;-77
2022/09/09 02:38:52;;;;;;;1.90;1.40;;;;;;;;;;5075738;28;20464;-76
2022/09/09 02:41:21;;;;;;;2.30;1.30;;;;;;;;;;5075176;28;20448;-76
2022/09/09 02:43:48;;;;;;;1.53;1.00;;;;;;;;;;5073352;28;20448;-76
2022/09/09 02:46:23;;;;;;;2.60;1.10;;;;;;;;;;5073494;28;20421;-76
2022/09/09 02:48:56;;;;;;;4.30;1.43;;;;;;;;;;5073744;28;20464;-76
2022/09/09 02:51:28;;;;;;;4.87;1.40;;;;;;;;;;5073570;28;20987;-77
2022/09/09 02:53:59;;;;;;;5.30;1.40;;;;;;;;;;5073266;28;20456;-76
2022/09/09 02:56:28;;;;;;;1.97;1.53;;;;;;;;;;5073228;28;20459;-77
2022/09/09 02:58:55;;;;;;;1.60;1.50;;;;;;;;;;5076535;28;20477;-76
2022/09/09 03:01:22;;;;;;;2.80;1.60;;;;;;;;;;5075943;28;20445;-77
2022/09/09 03:03:49;;;;;;;1.33;1.20;;;;;;;;;;5074474;28;20467;-77
2022/09/09 03:06:16;;;;;;;3.13;1.50;;;;;;;;;;5072349;28;20453;-77
2022/09/09 03:08:45;;;;;;;1.87;1.33;;;;;;;;;;5072948;28;20472;-77
2022/09/09 03:11:13;;;;;;;2.30;1.43;;;;;;;;;;5065650;28;20442;-77
2022/09/09 03:13:40;;;;;;;5.43;1.20;;;;;;;;;;5053138;28;20445;-77
2022/09/09 03:16:08;;;;;;;2.40;1.50;;;;;;;;;;5053214;28;20437;-76
2022/09/09 03:18:35;;;;;;;2.00;1.33;;;;;;;;;;5052916;28;20465;-77
2022/09/09 03:21:02;;;;;;;3.00;1.30;;;;;;;;;;5052703;28;20484;-77
2022/09/09 03:23:29;;;;;;;1.87;1.00;;;;;;;;;;5052302;28;20441;-77
2022/09/09 03:25:58;;;;;;;1.63;1.10;;;;;;;;;;5052424;28;20455;-76
2022/09/09 03:28:30;;;;;;;1.50;1.17;;;;;;;;;;5052746;28;20470;-76
2022/09/09 03:30:59;;;;;;;1.57;1.30;;;;;;;;;;5052718;28;20937;-77
2022/09/09 03:33:27;;;;;;;1.33;1.17;;;;;;;;;;5051846;28;20821;-77
2022/09/09 03:35:56;;;;;;;1.30;1.13;;;;;;;;;;5052794;28;20441;-76
2022/09/09 03:38:23;;;;;;;1.80;1.27;;;;;;;;;;5052902;28;20523;-77
2022/09/09 03:40:51;;;;;;;3.10;1.70;;;;;;;;;;5052089;28;20434;-76
2022/09/09 03:43:21;;;;;;;2.13;1.20;;;;;;;;;;5052042;28;20536;-76
2022/09/09 03:45:48;;;;;;;1.57;0.97;;;;;;;;;;5052346;28;20529;-77
2022/09/09 03:48:15;;;;;;;3.77;1.60;;;;;;;;;;5052298;28;20892;-76
2022/09/09 03:50:45;;;;;;;2.23;1.40;;;;;;;;;;5052361;28;21003;-75
2022/09/09 03:53:12;;;;;;;1.13;0.80;;;;;;;;;;5051498;28;20519;-76
2022/09/09 03:55:41;;;;;;;2.63;1.37;;;;;;;;;;5051584;28;20533;-76
2022/09/09 03:58:08;;;;;;;3.17;1.60;;;;;;;;;;5051591;28;20547;-77
2022/09/09 04:00:37;;;;;;;3.77;1.23;;;;;;;;;;5051519;28;20525;-76
2022/09/09 04:03:04;;;;;;;1.47;1.37;;;;;;;;;;5051840;28;20446;-76
2022/09/09 04:05:33;;;;;;;1.73;1.20;;;;;;;;;;5051602;28;20818;-76
2022/09/09 04:08:00;;;;;;;1.63;0.93;;;;;;;;;;5052115;28;20523;-77
2022/09/09 04:10:28;;;;;;;1.47;1.37;;;;;;;;;;5053483;28;20484;-76
2022/09/09 04:12:55;;;;;;;2.93;1.30;;;;;;;;;;5071616;28;20445;-76
2022/09/09 04:15:22;;;;;;;2.90;1.23;;;;;;;;;;5071947;28;20518;-77
2022/09/09 04:17:51;;;;;;;2.47;1.40;;;;;;;;;;5072165;28;20494;-77
2022/09/09 04:20:19;;;;;;;2.80;1.20;;;;;;;;;;5071789;28;20924;-77
2022/09/09 04:22:46;;;;;;;2.13;1.73;;;;;;;;;;5072106;28;20445;-76
2022/09/09 04:25:13;;;;;;;2.17;1.60;;;;;;;;;;5071655;28;20456;-76
2022/09/09 04:27:40;;;;;;;1.20;1.10;;;;;;;;;;5071310;28;20465;-77
2022/09/09 04:30:07;;;;;;;1.50;1.30;;;;;;;;;;5071053;28;21049;-77
2022/09/09 04:32:35;;;;;;;1.40;1.30;;;;;;;;;;5070853;28;20451;-77
2022/09/09 04:35:04;;;;;;;1.10;1.03;;;;;;;;;;5071474;28;20563;-76
2022/09/09 04:37:31;;;;;;;1.93;1.03;;;;;;;;;;5071113;28;20465;-77
2022/09/09 04:40:02;;;;;;;1.33;1.23;;;;;;;;;;5071491;28;20495;-77
2022/09/09 04:42:29;;;;;;;1.93;1.20;;;;;;;;;;5070881;28;20448;-77
2022/09/09 04:44:56;;;;;;;2.10;1.73;;;;;;;;;;5073979;28;20445;-78
2022/09/09 04:47:23;;;;;;;2.20;1.60;;;;;;;;;;5072845;28;20538;-76
2022/09/09 04:49:51;;;;;;;3.57;1.70;;;;;;;;;;5072175;28;20480;-77
2022/09/09 04:52:20;;;;;;;1.70;1.60;;;;;;;;;;5071012;28;20445;-77
2022/09/09 04:54:48;;;;;;;3.03;1.60;;;;;;;;;;5071106;28;20932;-77
2022/09/09 04:57:15;;;;;;;2.07;1.30;;;;;;;;;;5071895;28;21194;-77
2022/09/09 04:59:42;;;;;;;3.27;2.97;;;;;;;;;;5071241;28;20472;-77
2022/09/09 05:02:10;;;;;;;4.53;1.60;;;;;;;;;;5071532;28;20451;-76
2022/09/09 05:04:37;;;;;;;2.93;1.60;;;;;;;;;;5070905;28;20944;-77
2022/09/09 05:07:04;;;;;;;2.20;1.70;;;;;;;;;;5071120;28;20464;-77
2022/09/09 05:09:32;;;;;;;1.70;1.50;;;;;;;;;;5071024;28;21010;-76
2022/09/09 05:11:59;;;;;;;1.97;1.50;;;;;;;;;;5057188;28;20442;-77
2022/09/09 05:14:26;;;;;;;1.70;1.60;;;;;;;;;;5050653;28;20450;-77
2022/09/09 05:16:53;;;;;;;1.60;1.50;;;;;;;;;;5050994;28;20544;-76
2022/09/09 05:19:20;;;;;;;1.57;1.40;;;;;;;;;;5052117;28;20448;-76
2022/09/09 05:21:47;;;;;;;3.40;1.73;;;;;;;;;;5051502;28;20489;-76
2022/09/09 05:24:14;;;;;;;2.33;2.13;;;;;;;;;;5050468;28;20941;-76
2022/09/09 05:26:43;;;;;;;2.40;1.60;;;;;;;;;;5050280;28;20449;-77
2022/09/09 05:29:10;;;;;;;2.00;1.73;;;;;;;;;;5051003;28;21100;-76
2022/09/09 05:31:38;;;;;;;2.47;1.80;;;;;;;;;;5050403;28;20489;-77
2022/09/09 05:34:05;;;;;;;1.83;1.50;;;;;;;;;;5050962;28;20442;-76
2022/09/09 05:36:32;;;;;;;2.37;1.70;;;;;;;;;;5051048;28;20449;-76
2022/09/09 05:39:01;;;;;;;4.27;2.30;;;;;;;;;;5051314;28;20495;-77
2022/09/09 05:41:28;;;;;;;2.87;1.90;;;;;;;;;;5055009;28;20472;-76
2022/09/09 05:43:58;;;;;;;5.13;1.90;;;;;;;;;;5059691;28;20524;-77
2022/09/09 05:46:26;;;;;;;2.50;1.67;;;;;;;;;;5052874;28;20495;-77
2022/09/09 05:48:53;;;;;;;1.97;1.60;;;;;;;;;;5050458;28;20465;-76
2022/09/09 05:51:21;;;;;;;2.33;1.90;;;;;;;;;;5051042;28;20481;-77
2022/09/09 05:53:49;;;;;;;4.37;2.30;;;;;;;;;;5050575;28;20453;-77
2022/09/09 05:56:17;;;;;;;3.87;2.03;;;;;;;;;;5051853;28;20522;-76
2022/09/09 05:58:44;;;;;;;1.60;1.50;;;;;;;;;;5052114;28;20469;-78
2022/09/09 06:01:14;;;;;;;3.00;2.00;;;;;;;;;;5054699;28;20445;-76
2022/09/09 06:03:41;;;;;;;1.90;1.73;;;;;;;;;;5057121;28;20445;-76
2022/09/09 06:06:10;;;;;;;3.67;1.90;;;;;;;;;;5065527;28;20449;-77
2022/09/09 06:08:38;;;;;;;1.70;1.60;;;;;;;;;;5059184;28;20831;-76
2022/09/09 06:11:05;;;;;;;4.20;2.20;;;;;;;;;;5063357;28;20472;-76
2022/09/09 06:13:32;;;;;;;6.10;4.80;;;;;;;;;;5084649;28;20444;-77
2022/09/09 06:16:00;;;;;;;2.80;1.90;;;;;;;;;;5094739;28;20497;-76
2022/09/09 06:18:29;;;;;;;2.87;1.67;;;;;;;;;;5099237;28;20460;-77
2022/09/09 06:20:57;;;;;;;1.80;1.40;;;;;;;;;;5099361;28;20460;-76
2022/09/09 06:23:24;;;;;;;1.70;1.60;;;;;;;;;;5099053;28;20447;-76
2022/09/09 06:25:51;;;;;;;4.83;2.10;;;;;;;;;;5099331;28;20436;-76
2022/09/09 06:28:19;;;;;;;2.73;1.70;;;;;;;;;;5099356;28;20464;-76
2022/09/09 06:30:47;;;;;;;2.63;1.30;;;;;;;;;;5098854;28;20460;-76
2022/09/09 06:33:14;;;;;;;2.70;1.40;;;;;;;;;;5098681;28;20428;-75
2022/09/09 06:35:42;;;;;;;1.93;1.83;;;;;;;;;;5098738;28;20421;-76
2022/09/09 06:38:09;;;;;;;2.83;2.53;;;;;;;;;;5098643;28;20445;-76
2022/09/09 06:40:36;;;;;;;3.17;1.97;;;;;;;;;;5098623;28;20446;-75
2022/09/09 06:43:03;;;;;;;2.03;1.70;;;;;;;;;;5097819;28;20435;-77
2022/09/09 06:45:30;;;;;;;2.73;2.00;;;;;;;;;;5098024;28;20429;-77
2022/09/09 06:47:58;;;;;;;2.37;2.00;;;;;;;;;;5097770;28;20455;-75
2022/09/09 06:50:25;;;;;;;2.77;2.10;;;;;;;;;;5096396;28;20506;-76
2022/09/09 06:52:53;;;;;;;3.80;1.77;;;;;;;;;;5095105;28;20433;-76
2022/09/09 06:55:20;;;;;;;3.10;1.80;;;;;;;;;;5093636;28;20445;-76
2022/09/09 06:57:48;;;;;;;2.20;1.57;;;;;;;;;;5090045;28;20468;-77
2022/09/09 07:00:15;;;;;;;2.93;1.57;;;;;;;;;;5080620;28;20443;-76
2022/09/09 07:02:42;;;;;;;2.97;2.00;;;;;;;;;;5075872;28;20480;-76
2022/09/09 07:05:10;;;;;;;2.83;1.90;;;;;;;;;;5075437;28;20457;-76
2022/09/09 07:07:37;;;;;;;2.10;1.90;;;;;;;;;;5076269;28;20514;-76
2022/09/09 07:10:07;;;;;;;4.20;1.60;;;;;;;;;;5075528;28;20444;-76
2022/09/09 07:12:34;;;;;;;3.07;1.90;;;;;;;;;;5054096;28;20442;-75
2022/09/09 07:15:01;;;;;;;2.50;1.90;;;;;;;;;;5051511;28;20449;-76
2022/09/09 07:17:29;;;;;;;3.83;2.30;;;;;;;;;;5052894;28;20476;-77
2022/09/09 07:19:56;;;;;;;3.33;2.50;;;;;;;;;;5052810;28;20996;-76
2022/09/09 07:22:24;;;;;;;2.90;1.70;;;;;;;;;;5052635;28;20449;-77
2022/09/09 07:24:51;;;;;;;4.77;1.70;;;;;;;;;;5052345;28;20449;-76
2022/09/09 07:27:19;;;;;;;2.50;1.93;;;;;;;;;;5052870;28;20461;-76
2022/09/09 07:29:46;;;;;;;2.67;1.57;;;;;;;;;;5052847;28;20932;-77
2022/09/09 07:32:13;;;;;;;1.80;1.70;;;;;;;;;;5052815;28;20512;-77
2022/09/09 07:34:41;;;;;;;3.07;1.60;;;;;;;;;;5052900;28;20442;-76
2022/09/09 07:37:13;;;;;;;5.10;1.40;;;;;;;;;;5053632;28;20851;-77
2022/09/09 07:39:40;;;;;;;2.53;1.90;;;;;;;;;;5053155;28;20883;-76
2022/09/09 07:42:07;;;;;;;2.37;1.50;;;;;;;;;;5053260;28;20468;-77
2022/09/09 07:44:36;;;;;;;1.40;1.30;;;;;;;;;;5053841;28;20475;-78
2022/09/09 07:47:03;;;;;;;2.43;1.33;;;;;;;;;;5057503;28;20458;-77
2022/09/09 07:49:31;;;;;;;1.57;1.20;;;;;;;;;;5056803;28;20449;-77
2022/09/09 07:51:58;;;;;;;1.50;1.40;;;;;;;;;;5073055;28;20511;-76
2022/09/09 07:54:26;;;;;;;3.30;1.80;;;;;;;;;;5076102;28;20445;-77
2022/09/09 07:56:53;;;;;;;3.13;1.40;;;;;;;;;;5076072;28;20461;-76
2022/09/09 07:59:20;;;;;;;3.17;1.47;;;;;;;;;;5077693;28;20460;-77
2022/09/09 08:01:53;;;;;;;6.73;1.50;;;;;;;;;;5077337;28;20440;-76
2022/09/09 08:04:20;;;;;;;2.90;1.23;;;;;;;;;;5077156;28;20458;-76
2022/09/09 08:06:49;;;;;;;1.70;1.20;;;;;;;;;;5077591;28;20433;-77
2022/09/09 08:09:17;;;;;;;1.50;1.40;;;;;;;;;;5077240;28;20442;-77
2022/09/09 08:11:44;;;;;;;3.73;2.03;;;;;;;;;;5071466;28;21006;-76
2022/09/09 08:14:12;;;;;;;3.03;1.30;;;;;;;;;;5074436;28;20806;-77
2022/09/09 08:16:40;;;;;;;2.90;1.30;;;;;;;;;;5074380;28;20451;-76
2022/09/09 08:19:08;;;;;;;3.10;1.53;;;;;;;;;;5073503;28;21217;-77
2022/09/09 08:21:37;;;;;;;1.33;0.90;;;;;;;;;;5073291;28;20513;-76
2022/09/09 08:24:04;;;;;;;3.67;1.50;;;;;;;;;;5072121;28;20444;-77
2022/09/09 08:26:33;;;;;;;3.20;1.50;;;;;;;;;;5071931;28;20440;-76
2022/09/09 08:29:01;;;;;;;3.90;1.60;;;;;;;;;;5071918;28;20971;-77
2022/09/09 08:31:29;;;;;;;2.50;1.30;;;;;;;;;;5072301;28;20530;-77
2022/09/09 08:33:56;;;;;;;1.30;1.13;;;;;;;;;;5071509;28;20445;-77
2022/09/09 08:36:26;;;;;;;1.37;1.10;;;;;;;;;;5071100;28;20455;-76
2022/09/09 08:38:55;;;;;;;1.63;1.23;;;;;;;;;;5071193;28;20564;-76
2022/09/09 08:41:42;;;;;;;1.93;1.23;;;;;;;;;;5071417;28;20490;-77
2022/09/09 08:44:12;;;;;;;2.40;1.40;;;;;;;;;;5066096;28;20457;-76
2022/09/09 08:46:43;;;;;;;3.87;1.93;;;;;;;;;;5072572;28;20453;-75
2022/09/09 08:49:17;;;;;;;3.83;1.50;;;;;;;;;;5073296;28;20456;-76
2022/09/09 08:51:46;;;;;;;2.97;1.23;;;;;;;;;;5071183;28;20484;-77
2022/09/09 08:54:13;;;;;;;2.40;1.37;;;;;;;;;;5070938;28;20760;-76
2022/09/09 08:56:40;;;;;;;2.20;1.20;;;;;;;;;;5071096;28;20449;-76
2022/09/09 08:59:07;;;;;;;3.33;1.67;;;;;;;;;;5070434;28;20543;-78
2022/09/09 09:01:42;;;;;;;2.27;0.90;;;;;;;;;;5070650;28;20477;-78
2022/09/09 09:04:17;;;;;;;4.90;1.40;;;;;;;;;;5070474;28;20441;-77
2022/09/09 09:06:52;;;;;;;3.00;1.53;;;;;;;;;;5071148;28;20432;-76
2022/09/09 09:09:22;;;;;;;4.10;1.17;;;;;;;;;;5074894;28;20440;-77
2022/09/09 09:11:51;;;;;;;1.70;1.40;;;;;;;;;;5072360;28;20476;-76
2022/09/09 09:14:21;;;;;;;2.40;1.20;;;;;;;;;;5070627;28;20444;-77
2022/09/09 09:16:51;;;;;;;2.57;1.73;;;;;;;;;;5070681;28;20597;-76
2022/09/09 09:19:22;;;;;;;2.90;1.23;;;;;;;;;;5070887;28;20425;-76
2022/09/09 09:21:54;;;;;;;4.47;1.20;;;;;;;;;;5071096;28;20490;-78
2022/09/09 09:24:22;;;;;;;1.33;0.83;;;;;;;;;;5070494;28;20510;-77
2022/09/09 09:26:49;;;;;;;2.63;1.13;;;;;;;;;;5071199;28;20448;-77
2022/09/09 09:29:17;;;;;;;3.93;1.10;;;;;;;;;;5071206;28;20714;-76
2022/09/09 09:31:47;;;;;;;2.10;1.20;;;;;;;;;;5070915;28;20938;-76
2022/09/09 09:34:15;;;;;;;6.00;1.47;;;;;;;;;;5070804;28;20517;-76
2022/09/09 09:36:44;;;;;;;1.20;1.00;;;;;;;;;;5070900;28;20958;-76
2022/09/09 09:39:23;;;;;;;1.53;1.13;;;;;;;;;;5070208;28;20484;-76
2022/09/09 09:41:50;;;;;;;1.40;1.00;;;;;;;;;;5071169;28;20729;-76
2022/09/09 09:44:23;;;;;;;1.33;0.87;;;;;;;;;;5070522;28;20457;-76
2022/09/09 09:46:50;;;;;;;1.70;0.70;;;;;;;;;;5070653;28;20940;-76
2022/09/09 09:49:18;;;;;;;1.30;0.93;;;;;;;;;;5070675;28;20433;-76
2022/09/09 09:51:45;;;;;;;2.80;0.97;;;;;;;;;;5070255;28;20477;-77
2022/09/09 09:54:20;;;;;;;2.83;0.77;;;;;;;;;;5070500;28;20444;-77
2022/09/09 09:56:48;;;;;;;0.80;0.80;;;;;;;;;;5070338;28;20448;-76
2022/09/09 09:59:22;;;;;;;1.40;0.77;;;;;;;;;;5070509;28;20523;-76
2022/09/09 10:01:49;;;;;;;1.60;0.80;;;;;;;;;;5070106;28;20445;-77
2022/09/09 10:04:18;;;;;;;2.50;1.10;;;;;;;;;;5069764;28;20448;-76
2022/09/09 10:06:45;;;;;;;2.53;1.47;;;;;;;;;;5070433;28;20940;-77
2022/09/09 10:09:22;;;;;;;1.90;0.70;;;;;;;;;;5070849;28;20498;-78
2022/09/09 10:11:55;;;;;;;1.30;0.90;;;;;;;;;;5058001;28;20480;-77
2022/09/09 10:14:24;;;;;;;1.90;1.13;;;;;;;;;;5050564;28;20445;-78
2022/09/09 10:16:58;;;;;;;2.60;1.20;;;;;;;;;;5050565;28;20999;-77
2022/09/09 10:19:31;;;;;;;2.10;1.03;;;;;;;;;;5050777;28;20445;-76
2022/09/09 10:22:01;;;;;;;2.00;1.10;;;;;;;;;;5050504;28;20517;-77
2022/09/09 10:24:52;;;;;;;1.97;1.40;;;;;;;;;;5050636;28;20445;-77
2022/09/09 10:27:23;;;;;;;4.73;1.60;;;;;;;;;;5050866;28;20836;-77
2022/09/09 10:30:08;;;;;;;2.63;1.53;;;;;;;;;;5051392;28;20449;-78
2022/09/09 10:32:38;;;;;;;0.97;0.97;;;;;;;;;;5050603;28;20527;-77
2022/09/09 10:35:11;;;;;;;2.80;1.23;;;;;;;;;;5051975;28;20487;-78
2022/09/09 10:37:43;;;;;;;7.60;1.47;;;;;;;;;;5052796;28;20557;-77
2022/09/09 10:40:21;;;;;;;3.37;1.70;;;;;;;;;;5064104;28;20472;-77
2022/09/09 10:42:48;;;;;;;3.77;1.37;;;;;;;;;;5061610;28;20438;-78
2022/09/09 10:45:20;;;;;;;2.40;1.23;;;;;;;;;;5052936;28;20556;-77
2022/09/09 10:48:11;;;;;;;4.40;1.40;;;;;;;;;;5050770;28;20476;-80
2022/09/09 10:50:52;;;;;;;4.17;1.60;;;;;;;;;;5047609;28;20452;-77
2022/09/09 10:53:24;;;;;;;1.03;0.90;;;;;;;;;;5054331;28;20824;-76
2022/09/09 10:55:55;;;;;;;3.40;1.10;;;;;;;;;;5054514;28;20457;-76
2022/09/09 10:58:25;;;;;;;1.57;1.20;;;;;;;;;;5053757;28;21004;-77
2022/09/09 11:00:55;;;;;;;3.97;1.50;;;;;;;;;;5054062;28;20533;-77
2022/09/09 11:03:24;;;;;;;1.33;1.23;;;;;;;;;;5053701;28;20460;-78
2022/09/09 11:05:53;;;;;;;2.70;1.33;;;;;;;;;;5053699;28;20477;-77
2022/09/09 11:08:21;;;;;;;3.50;1.17;;;;;;;;;;5053898;28;20501;-79
2022/09/09 11:10:55;;;;;;;3.50;1.50;;;;;;;;;;5058369;28;20502;-77
2022/09/09 11:13:28;;;;;;;2.97;1.37;;;;;;;;;;5074122;28;20484;-76
2022/09/09 11:16:00;;;;;;;2.00;1.37;;;;;;;;;;5073563;28;20508;-77
2022/09/09 11:18:30;;;;;;;3.53;1.50;;;;;;;;;;5073159;28;20547;-77
2022/09/09 11:21:00;;;;;;;3.87;1.00;;;;;;;;;;5073032;28;20441;-75
2022/09/09 11:23:29;;;;;;;3.37;1.13;;;;;;;;;;5073062;28;20562;-77
2022/09/09 11:25:57;;;;;;;3.60;1.10;;;;;;;;;;5073214;28;20498;-77
2022/09/09 11:28:33;;;;;;;1.30;0.90;;;;;;;;;;5073109;28;20514;-77
2022/09/09 11:31:09;;;;;;;1.20;0.80;;;;;;;;;;5079682;28;20428;-77
2022/09/09 11:33:43;;;;;;;2.40;1.17;;;;;;;;;;5095061;28;20464;-78
2022/09/09 11:36:22;;;;;;;2.13;1.07;;;;;;;;;;5095488;28;20429;-77
2022/09/09 11:38:52;;;;;;;1.37;0.90;;;;;;;;;;5089185;28;20816;-77
2022/09/09 11:41:20;;;;;;;2.30;0.90;;;;;;;;;;5074451;28;20528;-77
2022/09/09 11:43:51;;;;;;;1.63;1.00;;;;;;;;;;5082407;28;20812;-77
2022/09/09 11:46:19;;;;;;;1.00;0.70;;;;;;;;;;5086784;28;20502;-77
2022/09/09 11:48:47;;;;;;;3.43;0.97;;;;;;;;;;5081618;28;20571;-78
2022/09/09 11:51:14;;;;;;;3.60;0.80;;;;;;;;;;5073708;28;20509;-77
2022/09/09 11:53:52;;;;;;;2.50;0.70;;;;;;;;;;5073138;28;20480;-77
2022/09/09 11:56:26;;;;;;;1.67;0.70;;;;;;;;;;5072579;28;21002;-77
2022/09/09 11:58:59;;;;;;;1.23;0.70;;;;;;;;;;5073144;28;20789;-76
2022/09/09 12:01:36;;;;;;;1.07;0.60;;;;;;;;;;5071861;28;20533;-78
2022/09/09 12:04:12;;;;;;;1.30;0.97;;;;;;;;;;5072779;28;20928;-77
2022/09/09 12:06:45;;;;;;;0.50;0.50;;;;;;;;;;5072205;28;20514;-78
2022/09/09 12:09:18;;;;;;;0.70;0.70;;;;;;;;;;5072026;28;20527;-77
2022/09/09 12:11:45;;;;;;;3.80;0.67;;;;;;;;;;5062074;28;20442;-76
2022/09/09 12:14:22;;;;;;;2.40;1.30;;;;;;;;;;5055690;28;20536;-77
2022/09/09 12:16:49;;;;;;;1.80;0.70;;;;;;;;;;5055767;28;20445;-77
2022/09/09 12:19:20;;;;;;;1.77;0.60;;;;;;;;;;5056704;28;20442;-76
2022/09/09 12:21:51;;;;;;;1.33;0.60;;;;;;;;;;5055606;28;20446;-76
2022/09/09 12:24:21;;;;;;;1.03;0.90;;;;;;;;;;5052460;28;20441;-76
2022/09/09 12:26:53;;;;;;;1.07;0.77;;;;;;;;;;5053579;28;20537;-75
2022/09/09 12:29:25;;;;;;;1.47;0.87;;;;;;;;;;5052425;28;20453;-76
2022/09/09 12:31:56;;;;;;;0.50;0.50;;;;;;;;;;5052058;28;20751;-75
2022/09/09 12:34:31;;;;;;;1.20;0.83;;;;;;;;;;5052179;28;20457;-76
2022/09/09 12:37:00;;;;;;;3.23;0.80;;;;;;;;;;5052902;28;20501;-76
2022/09/09 12:39:31;;;;;;;0.80;0.63;;;;;;;;;;5053015;28;20588;-77
2022/09/09 12:41:58;;;;;;;1.37;0.80;;;;;;;;;;5052762;28;20441;-78
2022/09/09 12:44:28;;;;;;;0.70;0.40;;;;;;;;;;5052214;28;20956;-78
2022/09/09 12:46:56;;;;;;;2.10;0.50;;;;;;;;;;5052264;28;20537;-77
2022/09/09 12:49:27;;;;;;;3.23;0.50;;;;;;;;;;5051782;28;20450;-76
2022/09/09 12:51:57;;;;;;;1.07;0.40;;;;;;;;;;5051350;28;20453;-76
2022/09/09 12:54:24;;;;;;;2.10;0.73;;;;;;;;;;5051049;28;20805;-77
2022/09/09 12:56:51;;;;;;;0.50;0.40;;;;;;;;;;5053333;28;20442;-76
2022/09/09 12:59:24;;;;;;;1.47;0.70;;;;;;;;;;5053829;28;20496;-77
2022/09/09 13:01:58;;;;;;;2.33;1.00;;;;;;;;;;5051855;28;20500;-78
2022/09/09 13:04:25;;;;;;;1.03;0.50;;;;;;;;;;5051553;28;20507;-76
2022/09/09 13:06:53;;;;;;;1.53;0.70;;;;;;;;;;5052027;28;20445;-77
2022/09/09 13:09:20;;;;;;;0.90;0.57;;;;;;;;;;5051874;28;20470;-77
2022/09/09 13:11:50;;;;;;;0.83;0.60;;;;;;;;;;5051721;28;21019;-76
2022/09/09 13:14:18;;;;;;;1.23;0.60;;;;;;;;;;5049919;28;20909;-77
2022/09/09 13:16:45;;;;;;;0.67;0.50;;;;;;;;;;5051352;28;20461;-77
2022/09/09 13:19:17;;;;;;;2.50;0.80;;;;;;;;;;5051786;28;20452;-75
2022/09/09 13:21:44;;;;;;;1.70;0.60;;;;;;;;;;5051784;28;20861;-76
2022/09/09 13:24:26;;;;;;;0.67;0.67;;;;;;;;;;5052060;28;20511;-77
2022/09/09 13:26:56;;;;;;;1.43;0.77;;;;;;;;;;5051368;28;20452;-76
2022/09/09 13:29:24;;;;;;;0.70;0.50;;;;;;;;;;5051025;28;20528;-76
2022/09/09 13:31:53;;;;;;;0.60;0.60;;;;;;;;;;5051331;28;20529;-75
2022/09/09 13:34:29;;;;;;;1.67;0.83;;;;;;;;;;5050505;28;20480;-77
2022/09/09 13:36:59;;;;;;;1.97;0.70;;;;;;;;;;5050518;28;20457;-76
2022/09/09 13:39:26;;;;;;;1.20;0.60;;;;;;;;;;5051236;28;20469;-75
2022/09/09 13:41:53;;;;;;;0.73;0.63;;;;;;;;;;5050812;28;20910;-76
2022/09/09 13:44:23;;;;;;;1.93;0.63;;;;;;;;;;5050569;28;20848;-76
2022/09/09 13:47:01;;;;;;;1.23;0.93;;;;;;;;;;5050406;28;20441;-77
2022/09/09 13:49:30;;;;;;;3.43;0.73;;;;;;;;;;5050664;28;20511;-77
2022/09/09 13:52:05;;;;;;;1.50;0.90;;;;;;;;;;5051593;28;20445;-76
2022/09/09 13:54:32;;;;;;;4.00;1.03;;;;;;;;;;5050655;28;20437;-76
2022/09/09 13:56:59;;;;;;;1.10;0.70;;;;;;;;;;5050323;28;20571;-77
2022/09/09 13:59:26;;;;;;;1.43;0.70;;;;;;;;;;5050292;28;20503;-76
2022/09/09 14:01:54;;;;;;;1.97;0.70;;;;;;;;;;5050537;28;20456;-76
2022/09/09 14:04:21;;;;;;;1.07;0.70;;;;;;;;;;5050267;28;20511;-77
2022/09/09 14:06:50;;;;;;;1.37;0.80;;;;;;;;;;5050706;28;20533;-77
2022/09/09 14:09:18;;;;;;;0.93;0.77;;;;;;;;;;5051150;28;20449;-76
2022/09/09 14:11:46;;;;;;;0.90;0.70;;;;;;;;;;5062128;28;20432;-75
2022/09/09 14:14:13;;;;;;;2.00;0.73;;;;;;;;;;5069664;28;20480;-77
2022/09/09 14:16:40;;;;;;;1.17;0.63;;;;;;;;;;5070063;28;20452;-77
2022/09/09 14:19:07;;;;;;;1.50;0.67;;;;;;;;;;5069932;28;20850;-76
2022/09/09 14:21:34;;;;;;;0.50;0.40;;;;;;;;;;5070455;28;20497;-76
2022/09/09 14:24:02;;;;;;;1.07;0.50;;;;;;;;;;5069889;28;20793;-75
2022/09/09 14:26:30;;;;;;;0.80;0.40;;;;;;;;;;5073698;28;20445;-76
2022/09/09 14:28:57;;;;;;;4.37;0.60;;;;;;;;;;5074222;28;20556;-76
2022/09/09 14:31:24;;;;;;;1.40;0.70;;;;;;;;;;5074300;28;20441;-78
2022/09/09 14:33:52;;;;;;;1.63;0.90;;;;;;;;;;5074196;28;20476;-77
2022/09/09 14:36:19;;;;;;;1.43;0.60;;;;;;;;;;5074064;28;20448;-77
2022/09/09 14:38:46;;;;;;;2.17;0.77;;;;;;;;;;5075061;28;20602;-77
2022/09/09 14:41:16;;;;;;;1.90;0.63;;;;;;;;;;5074611;28;20831;-76
2022/09/09 14:43:43;;;;;;;2.40;0.70;;;;;;;;;;5073876;28;20455;-75
2022/09/09 14:46:11;;;;;;;1.00;0.50;;;;;;;;;;5074072;28;20502;-76
2022/09/09 14:48:40;;;;;;;0.40;0.40;;;;;;;;;;5073005;28;20468;-76
2022/09/09 14:51:08;;;;;;;1.87;0.60;;;;;;;;;;5073236;28;20479;-78
2022/09/09 14:53:35;;;;;;;0.63;0.60;;;;;;;;;;5072750;28;20464;-77
2022/09/09 14:56:06;;;;;;;2.37;0.67;;;;;;;;;;5073239;28;20527;-77